Portland, Oregon
Traffic Map
Current Weather Conditions
Portland, Oregon
Broken Clouds
Broken Clouds
64°
Feels Like: 64°
Wind Chill: 64° Ceiling: 25000
Heat Index: 64° Visibility: 10mi
Dew Point: 43° Wind: 7mph
Humidity: 46% Direction: 260° (W)
Pressure: 30.09in Gusts: 0mph
Raw Report DataKPDX 191853Z 26006KT 10SM BKN250 18/06 A3009 RMK AO2 SLP189 T01780061
Traffic Incident Summary
Active as of:
Severity:
Category:
InformationThere was an issue retrieving the traffic information for this location. Please try a different location or try again shortly.
Advertisements
Track Severe Weather on mobile